createdAt,value
2023-02-11T00:00:47.095Z,100226.97
2023-02-11T00:01:48.729Z,100218.00
2023-02-11T00:02:50.356Z,100221.91
2023-02-11T00:03:52.294Z,100227.53
2023-02-11T00:04:53.895Z,100211.19
2023-02-11T00:06:02.140Z,100215.09
2023-02-11T00:07:05.896Z,100201.09
2023-02-11T00:08:07.641Z,100184.91
2023-02-11T00:09:10.157Z,100193.59
2023-02-11T00:10:11.715Z,100205.72
2023-02-11T00:11:14.948Z,100232.25
2023-02-11T00:12:19.596Z,100208.78
2023-02-11T00:13:21.542Z,100227.34
2023-02-11T00:14:23.578Z,100200.28
2023-02-11T00:15:25.124Z,100211.75
2023-02-11T00:16:26.741Z,100197.88
2023-02-11T00:17:28.685Z,100222.31
2023-02-11T00:18:30.516Z,100204.03
2023-02-11T00:19:32.269Z,100193.81
2023-02-11T00:20:34.083Z,100191.91
2023-02-11T00:21:38.544Z,100169.22
2023-02-11T00:22:40.198Z,100220.69
2023-02-11T00:23:42.097Z,100180.22
2023-02-11T00:24:55.063Z,100117.13
2023-02-11T00:25:56.789Z,100091.03
2023-02-11T00:26:58.463Z,100125.06
2023-02-11T00:28:00.776Z,100180.56
2023-02-11T00:29:04.748Z,100183.72
2023-02-11T00:30:08.922Z,100174.88
2023-02-11T00:31:10.959Z,100120.91
2023-02-11T00:32:12.610Z,100222.63
2023-02-11T00:33:14.691Z,100174.81
2023-02-11T00:34:16.266Z,100193.63
2023-02-11T00:35:17.910Z,100196.03
2023-02-11T00:36:21.504Z,100207.53
2023-02-11T00:37:23.028Z,100222.09
2023-02-11T00:38:25.063Z,100201.44
2023-02-11T00:39:27.118Z,100210.88
2023-02-11T00:40:28.697Z,100220.34
2023-02-11T00:41:30.332Z,100209.38
2023-02-11T00:42:31.938Z,100212.41
2023-02-11T00:43:33.481Z,100224.09
2023-02-11T00:44:35.493Z,100187.00
2023-02-11T00:45:37.015Z,100200.59
2023-02-11T00:46:38.600Z,100203.38
2023-02-11T00:47:40.190Z,100221.38
2023-02-11T00:48:41.777Z,100217.75
2023-02-11T00:49:43.291Z,100204.66
2023-02-11T00:50:44.821Z,100208.91
2023-02-11T00:51:46.448Z,100188.56
2023-02-11T00:52:47.992Z,100211.81
2023-02-11T00:53:49.575Z,100209.50
2023-02-11T00:54:51.174Z,100194.97
2023-02-11T00:55:52.776Z,100212.84
2023-02-11T00:56:54.360Z,100217.69
2023-02-11T00:57:55.947Z,100204.41
2023-02-11T00:58:57.702Z,100205.56
2023-02-11T00:59:59.482Z,100196.66
2023-02-11T01:01:01.055Z,100181.50
2023-02-11T01:02:03.130Z,100217.28
2023-02-11T01:03:04.774Z,100221.56
2023-02-11T01:04:06.381Z,100213.44
2023-02-11T01:05:08.332Z,100201.88
2023-02-11T01:06:10.401Z,100219.84
2023-02-11T01:07:11.932Z,100193.84
2023-02-11T01:08:13.546Z,100207.84
2023-02-11T01:09:15.064Z,100195.53
2023-02-11T01:10:16.802Z,100219.59
2023-02-11T01:11:19.677Z,100192.88
2023-02-11T01:12:21.341Z,100206.38
2023-02-11T01:13:23.130Z,100202.16
2023-02-11T01:14:24.758Z,100207.41
2023-02-11T01:15:26.525Z,100203.97
2023-02-11T01:16:28.662Z,100192.28
2023-02-11T01:17:30.213Z,100194.81
2023-02-11T01:18:31.764Z,100188.16
2023-02-11T01:19:33.327Z,100189.38
2023-02-11T01:20:34.936Z,100146.22
2023-02-11T01:21:36.944Z,100180.72
2023-02-11T01:22:39.657Z,100169.97
2023-02-11T01:23:41.466Z,100184.38
2023-02-11T01:24:43.169Z,100160.81
2023-02-11T01:25:47.612Z,100182.16
2023-02-11T01:26:49.149Z,100180.78
2023-02-11T01:27:50.666Z,100171.31
2023-02-11T01:28:52.867Z,100171.78
2023-02-11T01:29:54.410Z,100197.81
2023-02-11T01:30:56.158Z,100179.00
2023-02-11T01:32:01.046Z,100181.78
2023-02-11T01:33:02.704Z,100163.66
2023-02-11T01:34:04.381Z,100195.63
2023-02-11T01:35:06.675Z,100170.53
2023-02-11T01:36:08.507Z,100166.44
2023-02-11T01:37:10.036Z,100170.69
2023-02-11T01:38:16.380Z,100183.09
2023-02-11T01:39:18.001Z,100152.56
2023-02-11T01:40:19.592Z,100162.75
2023-02-11T01:41:21.283Z,100161.19
2023-02-11T01:42:23.181Z,100183.41
2023-02-11T01:43:25.254Z,100167.84
2023-02-11T01:44:29.369Z,100180.41
2023-02-11T01:45:49.120Z,100175.19
2023-02-11T01:46:51.025Z,100168.78
2023-02-11T01:47:52.565Z,100168.13
2023-02-11T01:49:10.826Z,100152.16
2023-02-11T01:50:12.524Z,100157.56
2023-02-11T01:51:20.559Z,100172.22
2023-02-11T01:52:25.870Z,100170.00
2023-02-11T01:53:47.249Z,100174.22
2023-02-11T01:55:12.293Z,100143.97
2023-02-11T01:56:32.690Z,100147.22
2023-02-11T01:57:35.044Z,100151.84
2023-02-11T01:58:36.740Z,100144.84
2023-02-11T02:00:01.559Z,100152.59
2023-02-11T02:01:03.379Z,100148.94
2023-02-11T02:02:07.734Z,100158.38
2023-02-11T02:03:20.346Z,100126.50
2023-02-11T02:04:22.157Z,100146.94
2023-02-11T02:05:35.301Z,100150.31
2023-02-11T02:07:03.887Z,100155.09
2023-02-11T02:08:13.962Z,100152.28
2023-02-11T02:09:27.056Z,100140.72
2023-02-11T02:10:28.664Z,100139.94
2023-02-11T02:11:30.208Z,100154.16
2023-02-11T02:12:31.734Z,100163.78
2023-02-11T02:13:34.068Z,100144.69
2023-02-11T02:14:41.881Z,100152.31
2023-02-11T02:15:48.393Z,100155.69
2023-02-11T02:16:50.113Z,100149.81
2023-02-11T02:17:59.333Z,100147.09
2023-02-11T02:19:05.760Z,100144.50
2023-02-11T02:20:30.038Z,100136.06
2023-02-11T02:22:10.435Z,100143.72
2023-02-11T02:23:27.125Z,100136.38
2023-02-11T02:24:48.796Z,100123.19
2023-02-11T02:25:52.913Z,100136.50
2023-02-11T02:27:16.246Z,100132.88
2023-02-11T02:28:48.567Z,100127.13
2023-02-11T02:30:09.326Z,100112.91
2023-02-11T02:31:28.961Z,100125.38
2023-02-11T02:33:25.094Z,100113.81
2023-02-11T02:34:32.734Z,100113.00
2023-02-11T02:35:43.395Z,100110.47
2023-02-11T02:36:54.702Z,100119.38
2023-02-11T02:38:08.129Z,100087.03
2023-02-11T02:39:20.599Z,100110.47
2023-02-11T02:40:25.676Z,100115.47
2023-02-11T02:41:29.094Z,100114.13
2023-02-11T02:42:30.611Z,100112.31
2023-02-11T02:43:32.107Z,100113.59
2023-02-11T02:44:33.682Z,100102.56
2023-02-11T02:45:35.194Z,100111.03
2023-02-11T02:46:37.069Z,100112.41
2023-02-11T02:47:38.675Z,100114.25
2023-02-11T02:48:40.175Z,100110.72
2023-02-11T02:49:41.689Z,100110.97
2023-02-11T02:50:43.260Z,100110.78
2023-02-11T02:52:05.549Z,100114.09
2023-02-11T02:54:07.115Z,100094.91
2023-02-11T02:55:41.387Z,100115.03
2023-02-11T02:56:51.672Z,100119.22
2023-02-11T02:58:11.329Z,100112.59
2023-02-11T02:59:58.040Z,100106.16
2023-02-11T03:01:08.471Z,100108.69
2023-02-11T03:02:12.797Z,100110.91
2023-02-11T03:03:34.800Z,100116.34
2023-02-11T03:04:40.421Z,100109.22
2023-02-11T03:05:49.827Z,100110.78
2023-02-11T03:06:58.604Z,100119.75
2023-02-11T03:08:06.013Z,100121.31
2023-02-11T03:09:12.331Z,100102.81
2023-02-11T03:10:31.076Z,100117.88
2023-02-11T03:11:32.623Z,100118.06
2023-02-11T03:12:34.216Z,100119.16
2023-02-11T03:13:36.670Z,100133.06
2023-02-11T03:14:38.149Z,100121.81
2023-02-11T03:15:42.226Z,100133.38
2023-02-11T03:16:43.856Z,100134.94
2023-02-11T03:17:47.247Z,100126.59
2023-02-11T03:18:51.269Z,100130.03
2023-02-11T03:19:52.802Z,100122.81
2023-02-11T03:20:54.450Z,100121.06
2023-02-11T03:21:57.272Z,100111.56
2023-02-11T03:23:04.951Z,100105.59
2023-02-11T03:24:09.097Z,100114.22
2023-02-11T03:25:10.596Z,100115.22
2023-02-11T03:26:21.029Z,100116.50
2023-02-11T03:27:33.403Z,100104.81
2023-02-11T03:28:36.671Z,100108.53
2023-02-11T03:30:07.964Z,100107.16
2023-02-11T03:31:22.411Z,100107.91
2023-02-11T03:32:29.188Z,100108.91
2023-02-11T03:34:02.376Z,100102.88
2023-02-11T03:35:18.001Z,100093.06
2023-02-11T03:36:23.566Z,100075.44
2023-02-11T03:37:30.665Z,100080.28
2023-02-11T03:38:34.485Z,100080.50
2023-02-11T03:39:41.215Z,100089.50
2023-02-11T03:40:42.990Z,100075.66
2023-02-11T03:41:44.550Z,100075.03
2023-02-11T03:42:52.291Z,100065.81
2023-02-11T03:43:56.003Z,100076.66
2023-02-11T03:45:01.813Z,100083.41
2023-02-11T03:46:03.499Z,100088.94
2023-02-11T03:47:05.534Z,100087.66
2023-02-11T03:48:14.324Z,100088.69
2023-02-11T03:49:16.956Z,100082.47
2023-02-11T03:50:18.470Z,100087.28
2023-02-11T03:51:20.186Z,100093.63
2023-02-11T03:52:22.368Z,100098.41
2023-02-11T03:53:24.050Z,100095.78
2023-02-11T03:54:29.240Z,100095.34
2023-02-11T03:55:30.784Z,100100.56
2023-02-11T03:56:33.852Z,100092.81
2023-02-11T03:57:35.325Z,100089.63
2023-02-11T03:58:36.845Z,100092.44
2023-02-11T03:59:51.565Z,100099.47
2023-02-11T04:00:53.119Z,100098.50
2023-02-11T04:01:54.781Z,100108.03
2023-02-11T04:02:56.286Z,100105.63
2023-02-11T04:03:57.817Z,100104.06
2023-02-11T04:04:59.357Z,100099.28
2023-02-11T04:06:00.896Z,100098.72
2023-02-11T04:07:02.440Z,100093.06
2023-02-11T04:08:04.128Z,100090.69
2023-02-11T04:09:05.702Z,100080.81
2023-02-11T04:10:07.627Z,100091.78
2023-02-11T04:11:09.287Z,100089.53
2023-02-11T04:12:10.790Z,100086.56
2023-02-11T04:13:12.331Z,100090.75
2023-02-11T04:14:13.824Z,100081.81
2023-02-11T04:15:15.586Z,100068.84
2023-02-11T04:16:17.133Z,100075.72
2023-02-11T04:17:18.644Z,100073.81
2023-02-11T04:18:20.125Z,100068.94
2023-02-11T04:19:21.632Z,100062.94
2023-02-11T04:20:23.179Z,100060.88
2023-02-11T04:21:24.693Z,100054.47
2023-02-11T04:22:26.214Z,100047.59
2023-02-11T04:23:27.819Z,100055.72
2023-02-11T04:24:29.389Z,100057.44
2023-02-11T04:25:30.997Z,100050.47
2023-02-11T04:26:32.527Z,100055.19
2023-02-11T04:27:34.076Z,100041.75
2023-02-11T04:28:36.891Z,100025.75
2023-02-11T04:29:38.545Z,100028.44
2023-02-11T04:30:40.071Z,100024.25
2023-02-11T04:31:41.657Z,100026.63
2023-02-11T04:32:43.182Z,100033.50
2023-02-11T04:33:44.724Z,100020.69
2023-02-11T04:34:46.271Z,100019.91
2023-02-11T04:35:47.954Z,100039.41
2023-02-11T04:36:49.653Z,100037.84
2023-02-11T04:37:51.233Z,100040.69
2023-02-11T04:38:52.736Z,100043.38
2023-02-11T04:39:54.243Z,100038.16
2023-02-11T04:40:55.759Z,100034.66
2023-02-11T04:41:57.269Z,100032.53
2023-02-11T04:42:58.739Z,100028.44
2023-02-11T04:44:00.250Z,100025.91
2023-02-11T04:45:01.926Z,100020.56
2023-02-11T04:46:03.520Z,100024.09
2023-02-11T04:47:05.122Z,100028.31
2023-02-11T04:48:06.704Z,100029.44
2023-02-11T04:49:08.236Z,100034.22
2023-02-11T04:50:09.883Z,100043.91
2023-02-11T04:51:11.467Z,100034.34
2023-02-11T04:52:12.991Z,100036.03
2023-02-11T04:53:14.511Z,100029.16
2023-02-11T04:54:16.148Z,100021.44
2023-02-11T04:55:17.749Z,100018.22
2023-02-11T04:56:19.257Z,100012.31
2023-02-11T04:57:20.776Z,100017.22
2023-02-11T04:58:22.316Z,100017.50
2023-02-11T04:59:23.820Z,100031.69
2023-02-11T05:00:25.359Z,100033.53
2023-02-11T05:01:27.090Z,100026.22
2023-02-11T05:02:28.647Z,100026.63
2023-02-11T05:03:30.290Z,100039.41
2023-02-11T05:04:31.885Z,100044.88
2023-02-11T05:05:33.470Z,100050.22
2023-02-11T05:06:34.998Z,100055.28
2023-02-11T05:07:36.545Z,100057.38
2023-02-11T05:08:38.135Z,100066.22
2023-02-11T05:09:39.679Z,100061.72
2023-02-11T05:10:41.264Z,100058.09
2023-02-11T05:11:43.152Z,100057.94
2023-02-11T05:12:44.727Z,100060.50
2023-02-11T05:13:46.533Z,100062.84
2023-02-11T05:14:48.076Z,100042.63
2023-02-11T05:15:50.108Z,100041.22
2023-02-11T05:16:52.031Z,100044.31
2023-02-11T05:17:53.785Z,100039.81
2023-02-11T05:18:55.827Z,100033.09
2023-02-11T05:19:57.398Z,100026.63
2023-02-11T05:20:58.950Z,100027.31
2023-02-11T05:22:03.472Z,100027.06
2023-02-11T05:23:05.223Z,100021.72
2023-02-11T05:24:07.277Z,100021.56
2023-02-11T05:25:08.787Z,100019.88
2023-02-11T05:26:10.942Z,100014.84
2023-02-11T05:27:13.028Z,100009.78
2023-02-11T05:28:14.619Z,100002.19
2023-02-11T05:29:16.149Z,99997.13
2023-02-11T05:30:17.744Z,99992.94
2023-02-11T05:31:19.370Z,99995.72
2023-02-11T05:32:21.468Z,100000.38
2023-02-11T05:33:23.439Z,99996.59
2023-02-11T05:34:26.874Z,100006.13
2023-02-11T05:35:28.510Z,100017.34
2023-02-11T05:36:33.286Z,100018.19
2023-02-11T05:37:35.380Z,100024.09
2023-02-11T05:38:37.194Z,100016.78
2023-02-11T05:39:41.668Z,100019.72
2023-02-11T05:40:43.185Z,100024.50
2023-02-11T05:41:44.689Z,100015.34
2023-02-11T05:42:46.294Z,100002.44
2023-02-11T05:43:53.733Z,99993.75
2023-02-11T05:44:55.433Z,99990.13
2023-02-11T05:45:57.439Z,99985.63
2023-02-11T05:46:59.328Z,99996.72
2023-02-11T05:48:00.810Z,100002.47
2023-02-11T05:49:02.330Z,99998.53
2023-02-11T05:50:03.969Z,100012.03
2023-02-11T05:51:05.560Z,100001.06
2023-02-11T05:52:10.015Z,99995.88
2023-02-11T05:53:11.655Z,99995.56
2023-02-11T05:54:13.354Z,99991.50
2023-02-11T05:55:14.874Z,100003.03
2023-02-11T05:56:16.440Z,100003.00
2023-02-11T05:57:17.937Z,100007.34
2023-02-11T05:58:19.420Z,100007.59
2023-02-11T05:59:20.938Z,100002.81
2023-02-11T06:00:22.508Z,100006.69
2023-02-11T06:01:24.045Z,100008.22
2023-02-11T06:02:25.617Z,99996.13
2023-02-11T06:03:27.260Z,100007.38
2023-02-11T06:04:31.189Z,100013.41
2023-02-11T06:05:32.731Z,100008.75
2023-02-11T06:06:34.277Z,100018.72
2023-02-11T06:07:35.888Z,100016.47
2023-02-11T06:08:39.307Z,100016.47
2023-02-11T06:09:40.994Z,100031.66
2023-02-11T06:10:45.273Z,100027.44
2023-02-11T06:11:46.801Z,100016.75
2023-02-11T06:12:48.609Z,100015.91
2023-02-11T06:13:50.875Z,100002.00
2023-02-11T06:14:52.537Z,99994.41
2023-02-11T06:15:58.037Z,99992.03
2023-02-11T06:17:02.610Z,99999.47
2023-02-11T06:18:04.313Z,99993.44
2023-02-11T06:19:05.875Z,99998.50
2023-02-11T06:20:08.650Z,99996.09
2023-02-11T06:21:11.414Z,100004.13
2023-02-11T06:22:13.186Z,99997.81
2023-02-11T06:23:15.246Z,99999.47
2023-02-11T06:24:28.515Z,100002.16
2023-02-11T06:25:38.518Z,99992.28
2023-02-11T06:26:40.018Z,99996.09
2023-02-11T06:27:41.813Z,99994.31
2023-02-11T06:28:43.531Z,99996.56
2023-02-11T06:29:45.838Z,99996.94
2023-02-11T06:30:47.391Z,99991.03
2023-02-11T06:31:48.999Z,99988.66
2023-02-11T06:32:51.693Z,99974.75
2023-02-11T06:33:55.031Z,99985.03
2023-02-11T06:34:57.028Z,99982.50
2023-02-11T06:35:58.550Z,99989.53
2023-02-11T06:37:00.149Z,99986.16
2023-02-11T06:38:02.169Z,99987.56
2023-02-11T06:39:03.803Z,99988.25
2023-02-11T06:40:06.241Z,99989.53
2023-02-11T06:41:10.317Z,99993.63
2023-02-11T06:42:11.822Z,100003.22
2023-02-11T06:43:13.811Z,100006.03
2023-02-11T06:44:15.308Z,100007.94
2023-02-11T06:45:16.914Z,99998.25
2023-02-11T06:46:18.529Z,100005.81
2023-02-11T06:47:20.095Z,100011.19
2023-02-11T06:48:22.255Z,100018.47
2023-02-11T06:49:23.782Z,100024.09
2023-02-11T06:50:25.856Z,100030.56
2023-02-11T06:51:28.352Z,100031.28
2023-02-11T06:52:29.870Z,100032.97
2023-02-11T06:53:32.203Z,100027.75
2023-02-11T06:54:33.753Z,100026.63
2023-02-11T06:55:35.405Z,100032.53
2023-02-11T06:56:39.638Z,100037.00
2023-02-11T06:57:41.176Z,100031.94
2023-02-11T06:58:42.834Z,100036.44
2023-02-11T06:59:44.382Z,100038.97
2023-02-11T07:00:46.118Z,100036.75
2023-02-11T07:01:47.765Z,100032.13
2023-02-11T07:02:49.894Z,100032.53
2023-02-11T07:03:52.103Z,100025.22
2023-02-11T07:04:53.890Z,100047.44
2023-02-11T07:05:55.386Z,100042.06
2023-02-11T07:06:56.891Z,100041.00
2023-02-11T07:07:58.382Z,100035.38
2023-02-11T07:09:00.509Z,100038.91
2023-02-11T07:10:04.067Z,100041.91
2023-02-11T07:11:10.254Z,100031.56
2023-02-11T07:12:11.763Z,100033.75
2023-02-11T07:13:13.300Z,100035.41
2023-02-11T07:14:15.402Z,100034.75
2023-02-11T07:15:16.904Z,100037.81
2023-02-11T07:16:18.691Z,100046.16
2023-02-11T07:17:20.280Z,100042.94
2023-02-11T07:18:21.771Z,100040.38
2023-02-11T07:19:23.296Z,100043.22
2023-02-11T07:20:25.133Z,100031.88
2023-02-11T07:21:26.690Z,100039.88
2023-02-11T07:22:28.188Z,100043.69
2023-02-11T07:23:29.732Z,100038.69
2023-02-11T07:24:31.727Z,100032.53
2023-02-11T07:25:33.326Z,100035.31
2023-02-11T07:26:34.895Z,100022.56
2023-02-11T07:27:36.483Z,100025.50
2023-02-11T07:28:38.230Z,100016.38
2023-02-11T07:29:39.977Z,99985.06
2023-02-11T07:30:41.510Z,99996.44
2023-02-11T07:31:43.228Z,100002.19
2023-02-11T07:32:44.891Z,100002.19
2023-02-11T07:33:46.499Z,100008.66
2023-02-11T07:34:48.638Z,100012.41
2023-02-11T07:35:50.421Z,100019.00
2023-02-11T07:36:52.100Z,100002.28
2023-02-11T07:37:53.727Z,100014.63
2023-02-11T07:38:55.708Z,100016.19
2023-02-11T07:39:57.252Z,100010.69
2023-02-11T07:41:02.406Z,100005.00
2023-02-11T07:42:04.358Z,100014.00
2023-02-11T07:43:05.948Z,100023.00
2023-02-11T07:44:07.980Z,100018.47
2023-02-11T07:45:09.737Z,100013.38
2023-02-11T07:46:13.558Z,100027.69
2023-02-11T07:47:15.098Z,100024.53
2023-02-11T07:48:16.907Z,100017.75
2023-02-11T07:49:18.516Z,100027.84
2023-02-11T07:50:19.995Z,100038.53
2023-02-11T07:51:28.646Z,100042.72
2023-02-11T07:52:30.943Z,100043.63
2023-02-11T07:53:32.467Z,100039.97
2023-02-11T07:54:33.944Z,100048.63
2023-02-11T07:55:35.546Z,100056.38
2023-02-11T07:56:37.092Z,100052.72
2023-02-11T07:57:38.790Z,100059.69
2023-02-11T07:58:42.700Z,100049.34
2023-02-11T07:59:44.346Z,100049.91
2023-02-11T08:00:46.045Z,100041.19
2023-02-11T08:01:47.671Z,100050.69
2023-02-11T08:02:49.366Z,100063.34
2023-02-11T08:03:51.161Z,100064.41
2023-02-11T08:04:52.930Z,100063.38
2023-02-11T08:05:54.410Z,100068.13
2023-02-11T08:06:59.011Z,100069.19
2023-02-11T08:08:00.668Z,100055.75
2023-02-11T08:09:07.341Z,100057.09
2023-02-11T08:10:08.973Z,100059.75
2023-02-11T08:11:23.336Z,100065.25
2023-02-11T08:12:24.849Z,100058.31
2023-02-11T08:13:27.018Z,100061.47
2023-02-11T08:14:28.976Z,100053.50
2023-02-11T08:15:30.468Z,100055.75
2023-02-11T08:16:33.549Z,100058.84
2023-02-11T08:17:36.078Z,100055.75
2023-02-11T08:18:37.651Z,100048.94
2023-02-11T08:19:39.563Z,100049.31
2023-02-11T08:20:41.090Z,100049.69
2023-02-11T08:21:43.006Z,100036.78
2023-02-11T08:22:44.546Z,100048.13
2023-02-11T08:23:46.102Z,100041.47
2023-02-11T08:24:49.577Z,100046.34
2023-02-11T08:25:52.188Z,100042.97
2023-02-11T08:26:53.687Z,100041.19
2023-02-11T08:27:55.249Z,100037.00
2023-02-11T08:28:56.970Z,100037.47
2023-02-11T08:30:00.229Z,100029.66
2023-02-11T08:31:08.429Z,100034.09
2023-02-11T08:32:10.004Z,100035.28
2023-02-11T08:33:11.602Z,100042.53
2023-02-11T08:34:14.621Z,100037.56
2023-02-11T08:35:16.204Z,100041.59
2023-02-11T08:36:22.360Z,100037.41
2023-02-11T08:37:24.091Z,100040.91
2023-02-11T08:38:25.623Z,100043.91
2023-02-11T08:39:27.567Z,100041.16
2023-02-11T08:40:29.199Z,100038.53
2023-02-11T08:41:31.803Z,100026.63
2023-02-11T08:42:33.305Z,100038.47
2023-02-11T08:43:35.508Z,100026.22
2023-02-11T08:44:37.363Z,100036.59
2023-02-11T08:45:39.084Z,100038.66
2023-02-11T08:46:40.629Z,100040.19
2023-02-11T08:47:42.117Z,100036.72
2023-02-11T08:48:44.725Z,100038.16
2023-02-11T08:49:46.285Z,100039.00
2023-02-11T08:50:47.831Z,100038.69
2023-02-11T08:51:49.517Z,100035.94
2023-02-11T08:52:52.437Z,100042.41
2023-02-11T08:53:54.076Z,100043.00
2023-02-11T08:54:55.946Z,100030.25
2023-02-11T08:55:57.437Z,100041.84
2023-02-11T08:56:58.979Z,100034.94
2023-02-11T08:58:00.487Z,100029.03
2023-02-11T08:59:02.420Z,100036.03
2023-02-11T09:00:05.281Z,100027.38
2023-02-11T09:01:14.377Z,100038.00
2023-02-11T09:02:15.835Z,100036.34
2023-02-11T09:03:17.225Z,100029.84
2023-02-11T09:04:18.836Z,100032.34
2023-02-11T09:05:20.502Z,100034.56
2023-02-11T09:06:22.565Z,100024.69
2023-02-11T09:07:24.147Z,100022.34
2023-02-11T09:08:25.732Z,100026.91
2023-02-11T09:09:27.337Z,100017.84
2023-02-11T09:10:29.319Z,100024.28
2023-02-11T09:11:34.937Z,100026.00
2023-02-11T09:12:36.439Z,100029.31
2023-02-11T09:13:38.114Z,100017.94
2023-02-11T09:14:39.902Z,100019.72
2023-02-11T09:15:41.579Z,100018.41
2023-02-11T09:16:43.143Z,100022.84
2023-02-11T09:17:44.671Z,100010.41
2023-02-11T09:18:46.322Z,100001.06
2023-02-11T09:19:47.920Z,100007.47
2023-02-11T09:20:49.656Z,99995.84
2023-02-11T09:21:51.527Z,99991.66
2023-02-11T09:22:53.755Z,100005.59
2023-02-11T09:23:55.297Z,100006.66
2023-02-11T09:24:57.191Z,100008.66
2023-02-11T09:25:58.804Z,100012.81
2023-02-11T09:27:00.328Z,100014.13
2023-02-11T09:28:01.978Z,100018.00
2023-02-11T09:29:03.965Z,100035.81
2023-02-11T09:30:06.280Z,100031.97
2023-02-11T09:31:08.800Z,100021.06
2023-02-11T09:32:10.493Z,100023.97
2023-02-11T09:33:12.070Z,100031.69
2023-02-11T09:34:13.686Z,100035.56
2023-02-11T09:35:15.582Z,100026.47
2023-02-11T09:36:28.698Z,100027.47
2023-02-11T09:37:30.243Z,100009.84
2023-02-11T09:38:32.033Z,100025.31
2023-02-11T09:39:33.720Z,100027.16
2023-02-11T09:40:35.265Z,100026.63
2023-02-11T09:42:07.111Z,100032.47
2023-02-11T09:43:14.711Z,100023.38
2023-02-11T09:44:23.990Z,100032.34
2023-02-11T09:45:27.241Z,100030.00
2023-02-11T09:46:32.704Z,100025.25
2023-02-11T09:47:35.716Z,100018.53
2023-02-11T09:48:38.632Z,100022.78
2023-02-11T09:49:43.381Z,100021.78
2023-02-11T09:50:54.453Z,100033.44
2023-02-11T09:51:59.225Z,100022.84
2023-02-11T09:53:06.913Z,100032.09
2023-02-11T09:54:31.612Z,100037.97
2023-02-11T09:55:43.095Z,100030.06
2023-02-11T09:56:44.626Z,100034.09
2023-02-11T09:57:46.271Z,100031.78
2023-02-11T09:58:47.750Z,100023.69
2023-02-11T09:59:49.424Z,100022.50
2023-02-11T10:01:05.742Z,100026.34
2023-02-11T10:02:19.357Z,100033.06
2023-02-11T10:03:44.677Z,100037.22
2023-02-11T10:04:51.761Z,100043.44
2023-02-11T10:06:20.217Z,100040.13
2023-02-11T10:07:29.826Z,100015.63
2023-02-11T10:08:49.314Z,100039.03
2023-02-11T10:10:03.777Z,100041.56
2023-02-11T10:11:22.667Z,100039.22
2023-02-11T10:12:31.213Z,100039.38
2023-02-11T10:13:54.923Z,100039.22
2023-02-11T10:14:59.203Z,100031.91
2023-02-11T10:16:33.517Z,100042.53
2023-02-11T10:17:49.923Z,100040.03
2023-02-11T10:19:19.924Z,100046.03
2023-02-11T10:20:34.730Z,100047.19
2023-02-11T10:21:44.000Z,100051.00
2023-02-11T10:22:55.666Z,100047.06
2023-02-11T10:23:59.595Z,100040.34
2023-02-11T10:25:01.536Z,100047.69
2023-02-11T10:26:03.116Z,100051.22
2023-02-11T10:27:12.599Z,100057.44
2023-02-11T10:28:18.955Z,100046.13
2023-02-11T10:29:33.915Z,100049.59
2023-02-11T10:30:41.207Z,100049.56
2023-02-11T10:31:43.342Z,100056.41
2023-02-11T10:33:05.155Z,100050.88
2023-02-11T10:34:10.909Z,100043.75
2023-02-11T10:35:21.711Z,100048.50
2023-02-11T10:36:26.358Z,100043.34
2023-02-11T10:37:27.891Z,100049.91
2023-02-11T10:38:29.436Z,100059.72
2023-02-11T10:39:32.063Z,100054.34
2023-02-11T10:40:33.841Z,100060.47
2023-02-11T10:41:37.038Z,100057.94
2023-02-11T10:42:39.495Z,100052.19
2023-02-11T10:43:41.083Z,100045.78
2023-02-11T10:44:59.101Z,100045.38
2023-02-11T10:46:00.985Z,100046.56
2023-02-11T10:47:05.962Z,100037.78
2023-02-11T10:48:37.613Z,100048.31
2023-02-11T10:49:39.756Z,100052.78
2023-02-11T10:50:41.321Z,100051.50
2023-02-11T10:51:42.900Z,100044.44
2023-02-11T10:52:44.763Z,100048.97
2023-02-11T10:53:47.481Z,100040.09
2023-02-11T10:55:03.842Z,100030.63
2023-02-11T10:56:11.037Z,100033.47
2023-02-11T10:57:19.156Z,100038.38
2023-02-11T10:58:31.224Z,100032.63
2023-02-11T10:59:40.474Z,100028.50
2023-02-11T11:00:42.829Z,100038.97
2023-02-11T11:01:49.121Z,100024.41
2023-02-11T11:02:55.969Z,100025.97
2023-02-11T11:03:59.958Z,100042.09
2023-02-11T11:05:19.155Z,100047.53
2023-02-11T11:06:31.530Z,100031.13
2023-02-11T11:07:34.018Z,100023.81
2023-02-11T11:08:49.657Z,100026.84
2023-02-11T11:09:55.547Z,100018.25
2023-02-11T11:11:23.334Z,100031.13
2023-02-11T11:12:45.284Z,100017.28
2023-02-11T11:13:52.672Z,100018.97
2023-02-11T11:15:16.504Z,100015.53
2023-02-11T11:16:34.942Z,100022.91
2023-02-11T11:17:37.404Z,100029.19
2023-02-11T11:18:39.759Z,100019.97
2023-02-11T11:19:41.293Z,100019.31
2023-02-11T11:21:04.118Z,100032.72
2023-02-11T11:22:05.611Z,100030.38
2023-02-11T11:23:27.501Z,100038.00
2023-02-11T11:24:53.455Z,100038.25
2023-02-11T11:26:13.694Z,100028.72
2023-02-11T11:27:19.601Z,100028.72
2023-02-11T11:28:25.284Z,100034.06
2023-02-11T11:29:40.920Z,100042.13
2023-02-11T11:30:42.864Z,100043.06
2023-02-11T11:31:52.859Z,100035.16
2023-02-11T11:32:54.714Z,100040.03
2023-02-11T11:33:57.354Z,100047.81
2023-02-11T11:35:00.790Z,100042.81
2023-02-11T11:36:08.029Z,100038.78
2023-02-11T11:37:27.113Z,100035.41
2023-02-11T11:38:29.156Z,100039.25
2023-02-11T11:39:32.150Z,100037.28
2023-02-11T11:40:34.242Z,100034.75
2023-02-11T11:41:35.828Z,100036.53
2023-02-11T11:42:38.808Z,100027.81
2023-02-11T11:43:40.381Z,100037.41
2023-02-11T11:44:41.894Z,100034.50
2023-02-11T11:45:56.536Z,100033.63
2023-02-11T11:47:16.570Z,100031.09
2023-02-11T11:48:35.405Z,100039.38
2023-02-11T11:49:58.136Z,100036.84
2023-02-11T11:51:05.308Z,100038.66
2023-02-11T11:52:06.693Z,100032.25
2023-02-11T11:53:16.848Z,100033.97
2023-02-11T11:54:18.435Z,100036.50
2023-02-11T11:55:22.187Z,100030.59
2023-02-11T11:56:29.209Z,100027.47
2023-02-11T11:57:31.040Z,100025.81
2023-02-11T11:58:33.523Z,100025.34
2023-02-11T11:59:35.140Z,100028.31
2023-02-11T12:00:58.852Z,100026.28
2023-02-11T12:02:08.459Z,100035.34
2023-02-11T12:03:22.648Z,100036.53
2023-02-11T12:04:38.652Z,100032.03
2023-02-11T12:06:09.694Z,100027.50
2023-02-11T12:07:17.705Z,100031.78
2023-02-11T12:08:38.577Z,100035.56
2023-02-11T12:10:15.330Z,100037.63
2023-02-11T12:11:21.688Z,100026.09
2023-02-11T12:12:42.241Z,100036.16
2023-02-11T12:14:04.514Z,100030.22
2023-02-11T12:15:09.107Z,100035.44
2023-02-11T12:16:24.775Z,100023.75
2023-02-11T12:17:53.408Z,100033.47
2023-02-11T12:19:14.262Z,100028.00
2023-02-11T12:20:32.875Z,100030.69
2023-02-11T12:21:46.253Z,100030.97
2023-02-11T12:22:53.716Z,100026.75
2023-02-11T12:24:24.143Z,100025.25
2023-02-11T12:25:29.267Z,100022.69